sensor_id;sensor_type;location;lat;lon;timestamp;temperature;humidity
11091;DHT22;5599;52.210;21.046;2022-10-30T00:01:43;13.80;99.90
11091;DHT22;5599;52.210;21.046;2022-10-30T00:04:13;13.80;99.90
11091;DHT22;5599;52.210;21.046;2022-10-30T00:06:44;13.80;99.90
11091;DHT22;5599;52.210;21.046;2022-10-30T00:09:13;13.80;99.90
11091;DHT22;5599;52.210;21.046;2022-10-30T00:11:42;13.80;99.90
11091;DHT22;5599;52.210;21.046;2022-10-30T00:14:11;13.80;99.90
11091;DHT22;5599;52.210;21.046;2022-10-30T00:16:41;13.80;99.90
11091;DHT22;5599;52.210;21.046;2022-10-30T00:19:10;13.80;99.90
11091;DHT22;5599;52.210;21.046;2022-10-30T00:21:39;13.80;99.90
11091;DHT22;5599;52.210;21.046;2022-10-30T00:24:10;13.90;99.90
11091;DHT22;5599;52.210;21.046;2022-10-30T00:26:39;13.90;99.90
11091;DHT22;5599;52.210;21.046;2022-10-30T00:29:08;13.90;99.90
11091;DHT22;5599;52.210;21.046;2022-10-30T00:31:37;13.90;99.90
11091;DHT22;5599;52.210;21.046;2022-10-30T00:34:06;13.90;99.90
11091;DHT22;5599;52.210;21.046;2022-10-30T00:36:35;13.90;99.90
11091;DHT22;5599;52.210;21.046;2022-10-30T00:39:04;13.80;99.90
11091;DHT22;5599;52.210;21.046;2022-10-30T00:41:35;13.90;99.90
11091;DHT22;5599;52.210;21.046;2022-10-30T00:44:34;13.90;99.90
11091;DHT22;5599;52.210;21.046;2022-10-30T00:47:09;13.90;99.90
11091;DHT22;5599;52.210;21.046;2022-10-30T00:49:52;13.90;99.90
11091;DHT22;5599;52.210;21.046;2022-10-30T00:52:23;13.90;99.90
11091;DHT22;5599;52.210;21.046;2022-10-30T00:54:54;13.90;99.90
11091;DHT22;5599;52.210;21.046;2022-10-30T00:57:26;13.90;99.90
11091;DHT22;5599;52.210;21.046;2022-10-30T00:59:55;13.90;99.90
11091;DHT22;5599;52.210;21.046;2022-10-30T01:02:25;13.90;99.90
11091;DHT22;5599;52.210;21.046;2022-10-30T01:04:55;13.90;99.90
11091;DHT22;5599;52.210;21.046;2022-10-30T01:07:24;13.90;99.90
11091;DHT22;5599;52.210;21.046;2022-10-30T01:09:53;13.80;99.90
11091;DHT22;5599;52.210;21.046;2022-10-30T01:12:22;13.90;99.90
11091;DHT22;5599;52.210;21.046;2022-10-30T01:14:55;13.90;99.90
11091;DHT22;5599;52.210;21.046;2022-10-30T01:17:50;13.80;99.90
11091;DHT22;5599;52.210;21.046;2022-10-30T01:20:48;13.80;99.90
11091;DHT22;5599;52.210;21.046;2022-10-30T01:23:31;13.80;99.90
11091;DHT22;5599;52.210;21.046;2022-10-30T01:26:10;13.80;99.90
11091;DHT22;5599;52.210;21.046;2022-10-30T01:28:54;13.80;99.90
11091;DHT22;5599;52.210;21.046;2022-10-30T01:31:41;13.80;99.90
11091;DHT22;5599;52.210;21.046;2022-10-30T01:34:18;13.70;99.90
11091;DHT22;5599;52.210;21.046;2022-10-30T01:36:53;13.70;99.90
11091;DHT22;5599;52.210;21.046;2022-10-30T01:39:27;13.80;99.90
11091;DHT22;5599;52.210;21.046;2022-10-30T01:41:56;13.80;99.90
11091;DHT22;5599;52.210;21.046;2022-10-30T01:44:29;13.90;99.90
11091;DHT22;5599;52.210;21.046;2022-10-30T01:47:13;13.90;99.90
11091;DHT22;5599;52.210;21.046;2022-10-30T01:50:12;13.90;99.90
11091;DHT22;5599;52.210;21.046;2022-10-30T01:52:50;13.90;99.90
11091;DHT22;5599;52.210;21.046;2022-10-30T01:55:35;13.90;99.90
11091;DHT22;5599;52.210;21.046;2022-10-30T01:58:09;13.90;99.90
11091;DHT22;5599;52.210;21.046;2022-10-30T02:00:41;13.90;99.90
11091;DHT22;5599;52.210;21.046;2022-10-30T02:03:13;13.90;99.90
11091;DHT22;5599;52.210;21.046;2022-10-30T02:05:46;13.90;99.90
11091;DHT22;5599;52.210;21.046;2022-10-30T02:08:17;13.90;99.90
11091;DHT22;5599;52.210;21.046;2022-10-30T02:10:49;13.90;99.90
11091;DHT22;5599;52.210;21.046;2022-10-30T02:13:32;13.90;99.90
11091;DHT22;5599;52.210;21.046;2022-10-30T02:16:01;13.90;99.90
11091;DHT22;5599;52.210;21.046;2022-10-30T02:18:33;13.80;99.90
11091;DHT22;5599;52.210;21.046;2022-10-30T02:21:04;13.80;99.90
11091;DHT22;5599;52.210;21.046;2022-10-30T02:23:37;13.90;99.90
11091;DHT22;5599;52.210;21.046;2022-10-30T02:26:06;13.90;99.90
11091;DHT22;5599;52.210;21.046;2022-10-30T02:28:35;13.90;99.90
11091;DHT22;5599;52.210;21.046;2022-10-30T02:31:05;13.90;99.90
11091;DHT22;5599;52.210;21.046;2022-10-30T02:33:34;13.90;99.90
11091;DHT22;5599;52.210;21.046;2022-10-30T02:36:06;13.90;99.90
11091;DHT22;5599;52.210;21.046;2022-10-30T02:38:35;13.90;99.90
11091;DHT22;5599;52.210;21.046;2022-10-30T02:41:04;13.90;99.90
11091;DHT22;5599;52.210;21.046;2022-10-30T02:43:33;13.90;99.90
11091;DHT22;5599;52.210;21.046;2022-10-30T02:46:03;13.90;99.90
11091;DHT22;5599;52.210;21.046;2022-10-30T02:48:33;14.00;99.90
11091;DHT22;5599;52.210;21.046;2022-10-30T02:51:02;13.90;99.90
11091;DHT22;5599;52.210;21.046;2022-10-30T02:53:33;13.90;99.90
11091;DHT22;5599;52.210;21.046;2022-10-30T02:56:03;13.90;99.90
11091;DHT22;5599;52.210;21.046;2022-10-30T02:58:33;13.90;99.90
11091;DHT22;5599;52.210;21.046;2022-10-30T03:01:07;13.90;99.90
11091;DHT22;5599;52.210;21.046;2022-10-30T03:03:36;13.90;99.90
11091;DHT22;5599;52.210;21.046;2022-10-30T03:06:08;13.90;99.90
11091;DHT22;5599;52.210;21.046;2022-10-30T03:08:38;13.90;99.90
11091;DHT22;5599;52.210;21.046;2022-10-30T03:11:09;14.00;99.90
11091;DHT22;5599;52.210;21.046;2022-10-30T03:13:39;13.90;99.90
11091;DHT22;5599;52.210;21.046;2022-10-30T03:16:10;13.90;99.90
11091;DHT22;5599;52.210;21.046;2022-10-30T03:18:40;14.00;99.90
11091;DHT22;5599;52.210;21.046;2022-10-30T03:21:11;14.00;99.90
11091;DHT22;5599;52.210;21.046;2022-10-30T03:23:42;14.00;99.90
11091;DHT22;5599;52.210;21.046;2022-10-30T03:26:12;14.00;99.90
11091;DHT22;5599;52.210;21.046;2022-10-30T03:29:04;14.00;99.90
11091;DHT22;5599;52.210;21.046;2022-10-30T03:31:33;14.00;99.90
11091;DHT22;5599;52.210;21.046;2022-10-30T03:34:13;14.00;99.90
11091;DHT22;5599;52.210;21.046;2022-10-30T03:36:42;14.00;99.90
11091;DHT22;5599;52.210;21.046;2022-10-30T03:39:14;14.00;99.90
11091;DHT22;5599;52.210;21.046;2022-10-30T03:41:45;14.00;99.90
11091;DHT22;5599;52.210;21.046;2022-10-30T03:44:14;14.00;99.90
11091;DHT22;5599;52.210;21.046;2022-10-30T03:46:43;14.00;99.90
11091;DHT22;5599;52.210;21.046;2022-10-30T03:49:23;14.00;99.90
11091;DHT22;5599;52.210;21.046;2022-10-30T03:51:53;14.00;99.90
11091;DHT22;5599;52.210;21.046;2022-10-30T03:54:26;13.90;99.90
11091;DHT22;5599;52.210;21.046;2022-10-30T03:56:55;14.00;99.90
11091;DHT22;5599;52.210;21.046;2022-10-30T03:59:27;13.90;99.90
11091;DHT22;5599;52.210;21.046;2022-10-30T04:02:25;13.90;99.90
11091;DHT22;5599;52.210;21.046;2022-10-30T04:04:54;13.90;99.90
11091;DHT22;5599;52.210;21.046;2022-10-30T04:07:24;13.90;99.90
11091;DHT22;5599;52.210;21.046;2022-10-30T04:09:54;13.80;99.90
11091;DHT22;5599;52.210;21.046;2022-10-30T04:12:23;13.80;99.90
11091;DHT22;5599;52.210;21.046;2022-10-30T04:14:52;13.90;99.90
11091;DHT22;5599;52.210;21.046;2022-10-30T04:17:21;13.80;99.90
11091;DHT22;5599;52.210;21.046;2022-10-30T04:19:50;13.80;99.90
11091;DHT22;5599;52.210;21.046;2022-10-30T04:22:20;13.80;99.90
11091;DHT22;5599;52.210;21.046;2022-10-30T04:24:49;13.80;99.90
11091;DHT22;5599;52.210;21.046;2022-10-30T04:27:19;13.80;99.90
11091;DHT22;5599;52.210;21.046;2022-10-30T04:29:48;13.80;99.90
11091;DHT22;5599;52.210;21.046;2022-10-30T04:32:19;13.80;99.90
11091;DHT22;5599;52.210;21.046;2022-10-30T04:34:48;13.80;99.90
11091;DHT22;5599;52.210;21.046;2022-10-30T04:37:20;13.80;99.90
11091;DHT22;5599;52.210;21.046;2022-10-30T04:39:49;13.90;99.90
11091;DHT22;5599;52.210;21.046;2022-10-30T04:42:25;13.80;99.90
11091;DHT22;5599;52.210;21.046;2022-10-30T04:44:54;13.80;99.90
11091;DHT22;5599;52.210;21.046;2022-10-30T04:47:23;13.80;99.90
11091;DHT22;5599;52.210;21.046;2022-10-30T04:49:52;13.80;99.90
11091;DHT22;5599;52.210;21.046;2022-10-30T04:52:22;13.80;99.90
11091;DHT22;5599;52.210;21.046;2022-10-30T04:54:53;13.80;99.90
11091;DHT22;5599;52.210;21.046;2022-10-30T04:57:22;13.80;99.90
11091;DHT22;5599;52.210;21.046;2022-10-30T04:59:53;13.80;99.90
11091;DHT22;5599;52.210;21.046;2022-10-30T05:02:23;13.70;99.90
11091;DHT22;5599;52.210;21.046;2022-10-30T05:04:52;13.70;99.90
11091;DHT22;5599;52.210;21.046;2022-10-30T05:07:22;13.70;99.90
11091;DHT22;5599;52.210;21.046;2022-10-30T05:09:52;13.70;99.90
11091;DHT22;5599;52.210;21.046;2022-10-30T05:12:22;13.70;99.90
11091;DHT22;5599;52.210;21.046;2022-10-30T05:14:55;13.70;99.90
11091;DHT22;5599;52.210;21.046;2022-10-30T05:17:24;13.70;99.90
11091;DHT22;5599;52.210;21.046;2022-10-30T05:19:53;13.70;99.90
11091;DHT22;5599;52.210;21.046;2022-10-30T05:22:23;13.70;99.90
11091;DHT22;5599;52.210;21.046;2022-10-30T05:24:52;13.70;99.90
11091;DHT22;5599;52.210;21.046;2022-10-30T05:27:22;13.70;99.90
11091;DHT22;5599;52.210;21.046;2022-10-30T05:29:51;13.70;99.90
11091;DHT22;5599;52.210;21.046;2022-10-30T05:32:21;13.70;99.90
11091;DHT22;5599;52.210;21.046;2022-10-30T05:34:52;13.70;99.90
11091;DHT22;5599;52.210;21.046;2022-10-30T05:37:22;13.70;99.90
11091;DHT22;5599;52.210;21.046;2022-10-30T05:39:51;13.70;99.90
11091;DHT22;5599;52.210;21.046;2022-10-30T05:42:26;13.70;99.90
11091;DHT22;5599;52.210;21.046;2022-10-30T05:44:58;13.80;99.90
11091;DHT22;5599;52.210;21.046;2022-10-30T05:47:34;13.80;99.90
11091;DHT22;5599;52.210;21.046;2022-10-30T05:50:03;13.80;99.90
11091;DHT22;5599;52.210;21.046;2022-10-30T05:52:32;13.80;99.90
11091;DHT22;5599;52.210;21.046;2022-10-30T05:55:02;13.80;99.90
11091;DHT22;5599;52.210;21.046;2022-10-30T05:57:42;13.80;99.90
11091;DHT22;5599;52.210;21.046;2022-10-30T06:00:12;13.80;99.90
11091;DHT22;5599;52.210;21.046;2022-10-30T06:02:42;13.80;99.90
11091;DHT22;5599;52.210;21.046;2022-10-30T06:05:14;13.80;99.90
11091;DHT22;5599;52.210;21.046;2022-10-30T06:07:43;13.80;99.90
11091;DHT22;5599;52.210;21.046;2022-10-30T06:10:12;13.80;99.90
11091;DHT22;5599;52.210;21.046;2022-10-30T06:13:01;13.80;99.90
11091;DHT22;5599;52.210;21.046;2022-10-30T06:15:37;13.80;99.90
11091;DHT22;5599;52.210;21.046;2022-10-30T06:18:08;13.80;99.90
11091;DHT22;5599;52.210;21.046;2022-10-30T06:20:44;13.90;99.90
11091;DHT22;5599;52.210;21.046;2022-10-30T06:23:36;13.90;99.90
11091;DHT22;5599;52.210;21.046;2022-10-30T06:26:28;13.90;99.90
11091;DHT22;5599;52.210;21.046;2022-10-30T06:29:03;14.00;99.90
11091;DHT22;5599;52.210;21.046;2022-10-30T06:31:32;14.00;99.90
11091;DHT22;5599;52.210;21.046;2022-10-30T06:34:03;14.10;99.90
11091;DHT22;5599;52.210;21.046;2022-10-30T06:36:35;14.10;99.90
11091;DHT22;5599;52.210;21.046;2022-10-30T06:39:05;14.20;99.90
11091;DHT22;5599;52.210;21.046;2022-10-30T06:41:43;14.30;99.90
11091;DHT22;5599;52.210;21.046;2022-10-30T06:44:36;14.30;99.90
11091;DHT22;5599;52.210;21.046;2022-10-30T06:47:05;14.40;99.90
11091;DHT22;5599;52.210;21.046;2022-10-30T06:49:35;14.50;99.90
11091;DHT22;5599;52.210;21.046;2022-10-30T06:52:04;14.50;99.90
11091;DHT22;5599;52.210;21.046;2022-10-30T06:54:34;14.60;99.90
11091;DHT22;5599;52.210;21.046;2022-10-30T06:57:21;14.60;99.90
11091;DHT22;5599;52.210;21.046;2022-10-30T07:00:23;14.60;99.90
11091;DHT22;5599;52.210;21.046;2022-10-30T07:03:15;14.70;99.90
11091;DHT22;5599;52.210;21.046;2022-10-30T07:05:46;14.70;99.90
11091;DHT22;5599;52.210;21.046;2022-10-30T07:08:16;14.80;99.90
11091;DHT22;5599;52.210;21.046;2022-10-30T07:10:45;14.80;99.90
11091;DHT22;5599;52.210;21.046;2022-10-30T07:13:25;14.90;99.90
11091;DHT22;5599;52.210;21.046;2022-10-30T07:15:59;14.90;99.90
11091;DHT22;5599;52.210;21.046;2022-10-30T07:18:34;14.90;99.90
11091;DHT22;5599;52.210;21.046;2022-10-30T07:21:06;15.00;99.90
11091;DHT22;5599;52.210;21.046;2022-10-30T07:23:36;15.10;99.90
11091;DHT22;5599;52.210;21.046;2022-10-30T07:26:28;15.20;99.90
11091;DHT22;5599;52.210;21.046;2022-10-30T07:29:03;15.10;99.90
11091;DHT22;5599;52.210;21.046;2022-10-30T07:31:41;15.20;99.90
11091;DHT22;5599;52.210;21.046;2022-10-30T07:34:48;15.10;99.90
11091;DHT22;5599;52.210;21.046;2022-10-30T07:37:30;15.10;99.90
11091;DHT22;5599;52.210;21.046;2022-10-30T07:40:06;15.10;99.90
11091;DHT22;5599;52.210;21.046;2022-10-30T07:42:59;15.20;99.90
11091;DHT22;5599;52.210;21.046;2022-10-30T07:45:52;15.20;99.90
11091;DHT22;5599;52.210;21.046;2022-10-30T07:48:40;15.30;99.90
11091;DHT22;5599;52.210;21.046;2022-10-30T07:51:27;15.40;99.90
11091;DHT22;5599;52.210;21.046;2022-10-30T07:53:58;15.50;99.90
11091;DHT22;5599;52.210;21.046;2022-10-30T07:56:31;15.60;99.90
11091;DHT22;5599;52.210;21.046;2022-10-30T07:59:29;15.60;99.90
11091;DHT22;5599;52.210;21.046;2022-10-30T08:02:19;15.60;99.90
11091;DHT22;5599;52.210;21.046;2022-10-30T08:05:12;15.60;99.90
11091;DHT22;5599;52.210;21.046;2022-10-30T08:08:01;15.70;99.90
11091;DHT22;5599;52.210;21.046;2022-10-30T08:10:33;15.80;99.90
11091;DHT22;5599;52.210;21.046;2022-10-30T08:13:02;15.90;99.90
11091;DHT22;5599;52.210;21.046;2022-10-30T08:15:32;15.90;99.90
11091;DHT22;5599;52.210;21.046;2022-10-30T08:18:02;16.00;99.90
11091;DHT22;5599;52.210;21.046;2022-10-30T08:20:32;16.10;99.90
11091;DHT22;5599;52.210;21.046;2022-10-30T08:23:01;16.10;99.90
11091;DHT22;5599;52.210;21.046;2022-10-30T08:25:33;16.20;99.90
11091;DHT22;5599;52.210;21.046;2022-10-30T08:28:05;16.40;99.90
11091;DHT22;5599;52.210;21.046;2022-10-30T08:30:37;16.40;99.90
11091;DHT22;5599;52.210;21.046;2022-10-30T08:33:11;16.50;99.90
11091;DHT22;5599;52.210;21.046;2022-10-30T08:35:52;16.70;99.90
11091;DHT22;5599;52.210;21.046;2022-10-30T08:38:24;16.80;99.90
11091;DHT22;5599;52.210;21.046;2022-10-30T08:41:27;16.90;99.90
11091;DHT22;5599;52.210;21.046;2022-10-30T08:43:57;17.00;99.90
11091;DHT22;5599;52.210;21.046;2022-10-30T08:46:37;17.10;99.90
11091;DHT22;5599;52.210;21.046;2022-10-30T08:49:07;17.10;99.90
11091;DHT22;5599;52.210;21.046;2022-10-30T08:51:43;17.10;99.90
11091;DHT22;5599;52.210;21.046;2022-10-30T08:54:12;17.10;99.90
11091;DHT22;5599;52.210;21.046;2022-10-30T08:56:45;17.10;99.90
11091;DHT22;5599;52.210;21.046;2022-10-30T08:59:15;17.00;99.90
11091;DHT22;5599;52.210;21.046;2022-10-30T09:01:52;16.90;99.90
11091;DHT22;5599;52.210;21.046;2022-10-30T09:04:21;16.90;99.90
11091;DHT22;5599;52.210;21.046;2022-10-30T09:07:05;16.90;99.90
11091;DHT22;5599;52.210;21.046;2022-10-30T09:09:58;16.90;99.90
11091;DHT22;5599;52.210;21.046;2022-10-30T09:12:33;16.90;99.90
11091;DHT22;5599;52.210;21.046;2022-10-30T09:15:03;16.90;99.90
11091;DHT22;5599;52.210;21.046;2022-10-30T09:17:43;16.90;99.90
11091;DHT22;5599;52.210;21.046;2022-10-30T09:20:16;16.80;99.90
11091;DHT22;5599;52.210;21.046;2022-10-30T09:22:48;16.90;99.90
11091;DHT22;5599;52.210;21.046;2022-10-30T09:25:18;16.90;99.90
11091;DHT22;5599;52.210;21.046;2022-10-30T09:28:11;17.10;99.90
11091;DHT22;5599;52.210;21.046;2022-10-30T09:31:10;17.20;99.90
11091;DHT22;5599;52.210;21.046;2022-10-30T09:33:42;17.10;99.90
11091;DHT22;5599;52.210;21.046;2022-10-30T09:36:35;17.00;99.90
11091;DHT22;5599;52.210;21.046;2022-10-30T09:39:07;17.00;99.90
11091;DHT22;5599;52.210;21.046;2022-10-30T09:41:58;17.00;99.90
11091;DHT22;5599;52.210;21.046;2022-10-30T09:44:48;17.00;99.90
11091;DHT22;5599;52.210;21.046;2022-10-30T09:47:48;17.00;99.90
11091;DHT22;5599;52.210;21.046;2022-10-30T09:50:24;17.00;99.90
11091;DHT22;5599;52.210;21.046;2022-10-30T09:53:14;17.10;99.90
11091;DHT22;5599;52.210;21.046;2022-10-30T09:55:55;17.20;99.90
11091;DHT22;5599;52.210;21.046;2022-10-30T09:58:37;17.20;99.90
11091;DHT22;5599;52.210;21.046;2022-10-30T10:01:24;17.30;99.90
11091;DHT22;5599;52.210;21.046;2022-10-30T10:04:11;17.40;99.90
11091;DHT22;5599;52.210;21.046;2022-10-30T10:07:22;17.40;99.90
11091;DHT22;5599;52.210;21.046;2022-10-30T10:10:04;17.40;99.90
11091;DHT22;5599;52.210;21.046;2022-10-30T10:12:48;17.50;99.90
11091;DHT22;5599;52.210;21.046;2022-10-30T10:15:39;17.70;99.90
11091;DHT22;5599;52.210;21.046;2022-10-30T10:18:17;17.90;99.90
11091;DHT22;5599;52.210;21.046;2022-10-30T10:20:51;18.10;99.90
11091;DHT22;5599;52.210;21.046;2022-10-30T10:23:32;18.30;99.90
11091;DHT22;5599;52.210;21.046;2022-10-30T10:26:09;18.30;99.90
11091;DHT22;5599;52.210;21.046;2022-10-30T10:28:54;18.40;99.90
11091;DHT22;5599;52.210;21.046;2022-10-30T10:31:39;18.30;99.90
11091;DHT22;5599;52.210;21.046;2022-10-30T10:34:23;18.10;99.90
11091;DHT22;5599;52.210;21.046;2022-10-30T10:37:00;18.10;99.90
11091;DHT22;5599;52.210;21.046;2022-10-30T10:39:44;18.20;99.90
11091;DHT22;5599;52.210;21.046;2022-10-30T10:42:23;18.30;99.90
11091;DHT22;5599;52.210;21.046;2022-10-30T10:45:11;18.40;99.90
11091;DHT22;5599;52.210;21.046;2022-10-30T10:48:16;18.40;99.90
11091;DHT22;5599;52.210;21.046;2022-10-30T10:50:51;18.40;99.90
11091;DHT22;5599;52.210;21.046;2022-10-30T10:53:26;18.40;99.90
11091;DHT22;5599;52.210;21.046;2022-10-30T10:55:58;18.50;99.90
11091;DHT22;5599;52.210;21.046;2022-10-30T10:58:32;18.40;99.90
11091;DHT22;5599;52.210;21.046;2022-10-30T11:01:07;18.40;99.90
11091;DHT22;5599;52.210;21.046;2022-10-30T11:03:48;18.40;99.90
11091;DHT22;5599;52.210;21.046;2022-10-30T11:06:21;18.40;99.90
11091;DHT22;5599;52.210;21.046;2022-10-30T11:09:15;18.30;99.90
11091;DHT22;5599;52.210;21.046;2022-10-30T11:11:57;18.30;99.90
11091;DHT22;5599;52.210;21.046;2022-10-30T11:14:36;18.30;99.90
11091;DHT22;5599;52.210;21.046;2022-10-30T11:17:16;18.20;99.90
11091;DHT22;5599;52.210;21.046;2022-10-30T11:20:16;18.20;99.90
11091;DHT22;5599;52.210;21.046;2022-10-30T11:22:49;18.30;99.90
11091;DHT22;5599;52.210;21.046;2022-10-30T11:25:20;18.30;99.90
11091;DHT22;5599;52.210;21.046;2022-10-30T11:27:58;18.30;99.90
11091;DHT22;5599;52.210;21.046;2022-10-30T11:30:31;18.20;99.90
11091;DHT22;5599;52.210;21.046;2022-10-30T11:33:21;18.30;99.90
11091;DHT22;5599;52.210;21.046;2022-10-30T11:35:55;18.40;99.90
11091;DHT22;5599;52.210;21.046;2022-10-30T11:38:26;18.50;99.90
11091;DHT22;5599;52.210;21.046;2022-10-30T11:40:56;18.60;99.90
11091;DHT22;5599;52.210;21.046;2022-10-30T11:43:28;18.70;99.90
11091;DHT22;5599;52.210;21.046;2022-10-30T11:45:57;18.80;99.90
11091;DHT22;5599;52.210;21.046;2022-10-30T11:48:29;18.80;99.90
11091;DHT22;5599;52.210;21.046;2022-10-30T11:51:01;18.70;99.90
11091;DHT22;5599;52.210;21.046;2022-10-30T11:53:33;18.70;99.90
11091;DHT22;5599;52.210;21.046;2022-10-30T11:56:23;18.80;95.70
11091;DHT22;5599;52.210;21.046;2022-10-30T11:58:54;18.90;93.40
11091;DHT22;5599;52.210;21.046;2022-10-30T12:01:26;18.90;94.90
11091;DHT22;5599;52.210;21.046;2022-10-30T12:04:12;19.00;96.00
11091;DHT22;5599;52.210;21.046;2022-10-30T12:07:29;19.10;94.50
11091;DHT22;5599;52.210;21.046;2022-10-30T12:11:01;19.20;96.70
11091;DHT22;5599;52.210;21.046;2022-10-30T12:13:41;19.20;99.90
11091;DHT22;5599;52.210;21.046;2022-10-30T12:16:54;19.30;99.90
11091;DHT22;5599;52.210;21.046;2022-10-30T12:19:28;19.30;99.90
11091;DHT22;5599;52.210;21.046;2022-10-30T12:22:00;19.20;99.90
11091;DHT22;5599;52.210;21.046;2022-10-30T12:24:37;19.20;99.90
11091;DHT22;5599;52.210;21.046;2022-10-30T12:27:13;19.10;99.90
11091;DHT22;5599;52.210;21.046;2022-10-30T12:30:05;19.00;99.90
11091;DHT22;5599;52.210;21.046;2022-10-30T12:32:57;18.90;99.90
11091;DHT22;5599;52.210;21.046;2022-10-30T12:35:41;18.90;99.90
11091;DHT22;5599;52.210;21.046;2022-10-30T12:38:16;18.70;99.90
11091;DHT22;5599;52.210;21.046;2022-10-30T12:40:57;18.60;99.90
11091;DHT22;5599;52.210;21.046;2022-10-30T12:43:33;18.40;99.90
11091;DHT22;5599;52.210;21.046;2022-10-30T12:46:18;18.40;99.90
11091;DHT22;5599;52.210;21.046;2022-10-30T12:48:57;18.30;99.90
11091;DHT22;5599;52.210;21.046;2022-10-30T12:51:51;18.30;99.90
11091;DHT22;5599;52.210;21.046;2022-10-30T12:54:28;18.20;99.90
11091;DHT22;5599;52.210;21.046;2022-10-30T12:57:05;18.20;99.90
11091;DHT22;5599;52.210;21.046;2022-10-30T12:59:45;18.10;99.90
11091;DHT22;5599;52.210;21.046;2022-10-30T13:02:26;18.00;99.90
11091;DHT22;5599;52.210;21.046;2022-10-30T13:05:01;17.90;99.90
11091;DHT22;5599;52.210;21.046;2022-10-30T13:07:37;17.70;99.90
11091;DHT22;5599;52.210;21.046;2022-10-30T13:10:21;17.70;99.90
11091;DHT22;5599;52.210;21.046;2022-10-30T13:12:57;17.70;99.90
11091;DHT22;5599;52.210;21.046;2022-10-30T13:15:32;17.70;99.90
11091;DHT22;5599;52.210;21.046;2022-10-30T13:18:14;17.80;99.90
11091;DHT22;5599;52.210;21.046;2022-10-30T13:20:57;17.90;99.90
11091;DHT22;5599;52.210;21.046;2022-10-30T13:23:36;17.80;99.90
11091;DHT22;5599;52.210;21.046;2022-10-30T13:26:12;17.70;99.90
11091;DHT22;5599;52.210;21.046;2022-10-30T13:28:49;17.70;99.90
11091;DHT22;5599;52.210;21.046;2022-10-30T13:31:29;17.70;99.90
11091;DHT22;5599;52.210;21.046;2022-10-30T13:34:05;17.60;99.90
11091;DHT22;5599;52.210;21.046;2022-10-30T13:36:42;17.50;99.90
11091;DHT22;5599;52.210;21.046;2022-10-30T13:39:23;17.40;99.90
11091;DHT22;5599;52.210;21.046;2022-10-30T13:42:03;17.30;99.90
11091;DHT22;5599;52.210;21.046;2022-10-30T13:44:43;17.30;99.90
11091;DHT22;5599;52.210;21.046;2022-10-30T13:47:23;17.30;99.90
11091;DHT22;5599;52.210;21.046;2022-10-30T13:50:11;17.30;99.90
11091;DHT22;5599;52.210;21.046;2022-10-30T13:52:45;17.40;99.90
11091;DHT22;5599;52.210;21.046;2022-10-30T13:55:19;17.30;99.90
11091;DHT22;5599;52.210;21.046;2022-10-30T13:57:54;17.30;99.90
11091;DHT22;5599;52.210;21.046;2022-10-30T14:00:32;17.30;99.90
11091;DHT22;5599;52.210;21.046;2022-10-30T14:03:21;17.30;99.90
11091;DHT22;5599;52.210;21.046;2022-10-30T14:05:57;17.20;99.90
11091;DHT22;5599;52.210;21.046;2022-10-30T14:08:34;17.20;99.90
11091;DHT22;5599;52.210;21.046;2022-10-30T14:11:05;17.10;99.90
11091;DHT22;5599;52.210;21.046;2022-10-30T14:13:52;17.00;99.90
11091;DHT22;5599;52.210;21.046;2022-10-30T14:16:38;16.90;99.90
11091;DHT22;5599;52.210;21.046;2022-10-30T14:19:10;16.80;99.90
11091;DHT22;5599;52.210;21.046;2022-10-30T14:21:50;16.80;99.90
11091;DHT22;5599;52.210;21.046;2022-10-30T14:24:23;16.80;99.90
11091;DHT22;5599;52.210;21.046;2022-10-30T14:27:08;16.70;99.90
11091;DHT22;5599;52.210;21.046;2022-10-30T14:29:44;16.70;99.90
11091;DHT22;5599;52.210;21.046;2022-10-30T14:32:37;16.60;99.90
11091;DHT22;5599;52.210;21.046;2022-10-30T14:35:39;16.50;99.90
11091;DHT22;5599;52.210;21.046;2022-10-30T14:38:28;16.40;99.90
11091;DHT22;5599;52.210;21.046;2022-10-30T14:41:28;16.30;99.90
11091;DHT22;5599;52.210;21.046;2022-10-30T14:44:27;16.20;99.90
11091;DHT22;5599;52.210;21.046;2022-10-30T14:47:08;16.30;99.90
11091;DHT22;5599;52.210;21.046;2022-10-30T14:49:45;16.20;99.90
11091;DHT22;5599;52.210;21.046;2022-10-30T14:52:27;16.10;99.90
11091;DHT22;5599;52.210;21.046;2022-10-30T14:55:14;16.10;99.90
11091;DHT22;5599;52.210;21.046;2022-10-30T14:57:51;16.10;99.90
11091;DHT22;5599;52.210;21.046;2022-10-30T15:00:40;16.10;99.90
11091;DHT22;5599;52.210;21.046;2022-10-30T15:06:20;16.00;99.90
11091;DHT22;5599;52.210;21.046;2022-10-30T15:09:16;16.00;99.90
11091;DHT22;5599;52.210;21.046;2022-10-30T15:12:02;16.00;99.90
11091;DHT22;5599;52.210;21.046;2022-10-30T15:14:36;15.90;99.90
11091;DHT22;5599;52.210;21.046;2022-10-30T15:17:25;15.90;99.90
11091;DHT22;5599;52.210;21.046;2022-10-30T15:19:58;15.90;99.90
11091;DHT22;5599;52.210;21.046;2022-10-30T15:22:28;15.90;99.90
11091;DHT22;5599;52.210;21.046;2022-10-30T15:25:00;15.90;99.90
11091;DHT22;5599;52.210;21.046;2022-10-30T15:27:31;15.90;99.90
11091;DHT22;5599;52.210;21.046;2022-10-30T15:30:03;15.80;99.90
11091;DHT22;5599;52.210;21.046;2022-10-30T15:32:32;15.80;99.90
11091;DHT22;5599;52.210;21.046;2022-10-30T15:35:03;15.70;99.90
11091;DHT22;5599;52.210;21.046;2022-10-30T15:37:58;15.60;99.90
11091;DHT22;5599;52.210;21.046;2022-10-30T15:40:29;15.60;99.90
11091;DHT22;5599;52.210;21.046;2022-10-30T15:43:00;15.60;99.90
11091;DHT22;5599;52.210;21.046;2022-10-30T15:45:33;15.60;99.90
11091;DHT22;5599;52.210;21.046;2022-10-30T15:48:05;15.60;99.90
11091;DHT22;5599;52.210;21.046;2022-10-30T15:50:41;15.60;99.90
11091;DHT22;5599;52.210;21.046;2022-10-30T15:53:17;15.50;99.90
11091;DHT22;5599;52.210;21.046;2022-10-30T15:55:48;15.60;99.90
11091;DHT22;5599;52.210;21.046;2022-10-30T15:58:21;15.60;99.90
11091;DHT22;5599;52.210;21.046;2022-10-30T16:00:55;15.60;99.90
11091;DHT22;5599;52.210;21.046;2022-10-30T16:03:53;15.60;99.90
11091;DHT22;5599;52.210;21.046;2022-10-30T16:06:28;15.60;99.90
11091;DHT22;5599;52.210;21.046;2022-10-30T16:08:58;15.60;99.90
11091;DHT22;5599;52.210;21.046;2022-10-30T16:11:38;15.60;99.90
11091;DHT22;5599;52.210;21.046;2022-10-30T16:14:13;15.50;99.90
11091;DHT22;5599;52.210;21.046;2022-10-30T16:16:49;15.50;99.90
11091;DHT22;5599;52.210;21.046;2022-10-30T16:19:38;15.50;99.90
11091;DHT22;5599;52.210;21.046;2022-10-30T16:22:15;15.50;99.90
11091;DHT22;5599;52.210;21.046;2022-10-30T16:24:57;15.50;99.90
11091;DHT22;5599;52.210;21.046;2022-10-30T16:27:29;15.50;99.90
11091;DHT22;5599;52.210;21.046;2022-10-30T16:29:59;15.50;99.90
11091;DHT22;5599;52.210;21.046;2022-10-30T16:32:31;15.50;99.90
11091;DHT22;5599;52.210;21.046;2022-10-30T16:35:04;15.40;99.90